Time;durP1;ratioP1;P1;durP2;ratioP2;P2;SDS_P1;SDS_P2;PMS_P1;PMS_P2;Temp;Humidity;BMP_temperature;BMP_pressure;BME280_temperature;BME280_humidity;BME280_pressure;Samples;Min_cycle;Max_cycle;Signal;HPM_P1;HPM_P2
2024/01/19 00:00:10;;;;;;;6.13;2.42;;;;;;;-0.23;100.00;101434.38;6090329;19;20002;-71
2024/01/19 00:02:15;;;;;;;1.58;1.48;;;;;;;-0.29;100.00;101431.72;6081094;19;20011;-71
2024/01/19 00:04:18;;;;;;;1.30;1.30;;;;;;;-0.39;100.00;101431.59;6089040;19;20011;-71
2024/01/19 00:06:23;;;;;;;10.25;2.40;;;;;;;-0.46;100.00;101431.47;6086491;19;20038;-71
2024/01/19 00:08:28;;;;;;;5.75;1.52;;;;;;;-0.43;100.00;101432.38;6083666;19;20012;-71
2024/01/19 00:10:36;;;;;;;3.45;2.17;;;;;;;-0.44;100.00;101434.09;6086648;19;20276;-71
2024/01/19 00:12:40;;;;;;;4.22;2.00;;;;;;;-0.45;100.00;101430.66;6091840;19;20556;-71
2024/01/19 00:14:46;;;;;;;3.42;1.85;;;;;;;-0.53;100.00;101429.66;6086204;19;20010;-71
2024/01/19 00:16:53;;;;;;;2.25;1.77;;;;;;;-0.60;100.00;101438.16;6086205;19;20561;-73
2024/01/19 00:18:59;;;;;;;2.97;1.92;;;;;;;-0.66;100.00;101430.31;6087987;19;20467;-73
2024/01/19 00:21:02;;;;;;;2.88;1.90;;;;;;;-0.69;100.00;101438.00;6087635;19;20034;-74
2024/01/19 00:23:07;;;;;;;3.17;2.10;;;;;;;-0.72;100.00;101443.13;6087562;19;20010;-73
2024/01/19 00:25:10;;;;;;;7.65;2.08;;;;;;;-0.74;100.00;101447.41;6080240;19;20018;-73
2024/01/19 00:27:17;;;;;;;7.68;2.42;;;;;;;-0.85;100.00;101443.78;6089285;19;20565;-73
2024/01/19 00:29:22;;;;;;;3.90;1.88;;;;;;;-0.92;100.00;101450.56;6086486;19;20474;-73
2024/01/19 00:31:28;;;;;;;4.60;1.90;;;;;;;-1.00;100.00;101447.88;6085412;19;20035;-72
2024/01/19 00:33:33;;;;;;;3.00;1.38;;;;;;;-1.00;100.00;101440.13;6087491;19;20104;-74
2024/01/19 00:35:39;;;;;;;4.03;2.33;;;;;;;-1.06;100.00;101450.31;6086358;19;20006;-73
2024/01/19 00:37:44;;;;;;;14.00;2.40;;;;;;;-1.12;100.00;101456.25;6083832;19;20013;-73
2024/01/19 00:39:49;;;;;;;2.63;2.30;;;;;;;-1.08;100.00;101443.41;6084194;19;20014;-73
2024/01/19 00:41:54;;;;;;;9.15;3.10;;;;;;;-1.13;100.00;101451.09;6086898;19;20474;-73
2024/01/19 00:44:02;;;;;;;8.52;2.95;;;;;;;-1.18;100.00;101457.88;6086785;19;20548;-72
2024/01/19 00:46:07;;;;;;;12.98;4.18;;;;;;;-1.14;100.00;101459.66;6082387;19;20015;-72
2024/01/19 00:48:10;;;;;;;6.95;3.05;;;;;;;-1.26;100.00;101454.25;6087597;19;20506;-72
2024/01/19 00:50:16;;;;;;;4.13;2.53;;;;;;;-1.31;100.00;101461.94;6088579;19;20010;-72
2024/01/19 00:52:21;;;;;;;4.10;2.72;;;;;;;-1.28;100.00;101467.16;6083409;19;20078;-72
2024/01/19 00:54:26;;;;;;;5.97;3.15;;;;;;;-1.38;100.00;101463.53;6086260;19;20014;-72
2024/01/19 00:56:31;;;;;;;5.85;2.75;;;;;;;-1.46;100.00;101456.50;6088519;19;20025;-73
2024/01/19 00:58:37;;;;;;;16.75;3.42;;;;;;;-1.54;100.00;101464.09;6086247;19;20034;-74
2024/01/19 01:00:47;;;;;;;6.13;3.47;;;;;;;-1.60;100.00;101462.25;6080231;19;20011;-73
2024/01/19 01:02:52;;;;;;;12.95;5.07;;;;;;;-1.66;100.00;101463.84;6087686;19;20357;-74
2024/01/19 01:04:58;;;;;;;6.13;2.67;;;;;;;-1.72;100.00;101471.44;6082097;19;20013;-73
2024/01/19 01:07:03;;;;;;;7.35;2.95;;;;;;;-1.79;100.00;101462.72;6084646;19;20372;-73
2024/01/19 01:09:08;;;;;;;10.30;2.72;;;;;;;-1.88;100.00;101468.56;6085484;19;20011;-74
2024/01/19 01:11:13;;;;;;;10.68;3.08;;;;;;;-1.92;100.00;101474.50;6085945;19;20479;-72
2024/01/19 01:13:21;;;;;;;1.75;1.65;;;;;;;-1.94;100.00;101473.59;6088452;19;20518;-71
2024/01/19 01:15:26;;;;;;;4.28;2.30;;;;;;;-2.05;100.00;101486.25;6085483;19;20369;-73
2024/01/19 01:17:33;;;;;;;3.85;1.95;;;;;;;-2.08;100.00;101477.56;6087309;19;20387;-73
2024/01/19 01:19:36;;;;;;;3.63;1.85;;;;;;;-2.04;100.00;101485.41;6087010;19;20467;-73
2024/01/19 01:21:42;;;;;;;2.35;2.17;;;;;;;-2.12;100.00;101484.38;6083416;19;20010;-74
2024/01/19 01:23:44;;;;;;;3.25;1.90;;;;;;;-2.08;100.00;101485.28;6083190;19;20003;-74
2024/01/19 01:25:49;;;;;;;2.92;2.10;;;;;;;-2.12;100.00;101486.94;6085051;19;20361;-74
2024/01/19 01:27:54;;;;;;;2.83;2.22;;;;;;;-2.18;100.00;101483.38;6084634;19;20007;-74
2024/01/19 01:29:59;;;;;;;3.60;2.70;;;;;;;-2.23;100.00;101489.28;6083923;19;20089;-74
2024/01/19 01:32:05;;;;;;;3.83;2.25;;;;;;;-2.11;100.00;101496.41;6085669;19;20318;-74
2024/01/19 01:34:13;;;;;;;10.55;4.07;;;;;;;-2.08;100.00;101498.16;6085661;19;20369;-74
2024/01/19 01:36:18;;;;;;;13.10;2.92;;;;;;;-2.10;100.00;101494.72;6084581;19;20038;-74
2024/01/19 01:38:23;;;;;;;4.95;2.55;;;;;;;-2.16;100.00;101500.56;6083705;19;20050;-74
2024/01/19 01:40:26;;;;;;;6.43;2.53;;;;;;;-2.18;100.00;101496.25;6083160;19;20475;-74
2024/01/19 01:42:31;;;;;;;3.78;2.35;;;;;;;-2.08;100.00;101501.63;6086344;19;20436;-74
2024/01/19 01:44:36;;;;;;;6.72;4.00;;;;;;;-2.12;100.00;101497.25;6084875;19;20022;-74
2024/01/19 01:46:41;;;;;;;6.03;3.17;;;;;;;-2.16;100.00;101499.72;6085237;19;20010;-74
2024/01/19 01:48:49;;;;;;;4.80;2.65;;;;;;;-2.16;100.00;101502.28;6084314;19;19999;-73
2024/01/19 01:50:58;;;;;;;8.15;3.40;;;;;;;-2.19;100.00;101499.66;6084273;19;20036;-73
2024/01/19 01:53:03;;;;;;;5.22;2.70;;;;;;;-2.21;100.00;101510.78;6081376;19;20043;-73
2024/01/19 01:55:09;;;;;;;4.20;2.60;;;;;;;-2.11;100.00;101510.97;6087642;19;20042;-74
2024/01/19 01:57:15;;;;;;;2.63;2.10;;;;;;;-2.01;100.00;101511.22;6086254;19;20784;-74
2024/01/19 01:59:20;;;;;;;2.08;1.88;;;;;;;-2.00;100.00;101514.69;6080667;19;20003;-73
2024/01/19 02:01:25;;;;;;;4.95;2.13;;;;;;;-1.98;100.00;101515.56;6085712;19;20152;-74
2024/01/19 02:03:31;;;;;;;4.80;1.98;;;;;;;-1.91;100.00;101514.00;6080653;19;20096;-74
2024/01/19 02:05:36;;;;;;;2.55;1.70;;;;;;;-1.95;100.00;101518.19;6084704;19;20015;-77
2024/01/19 02:07:44;;;;;;;7.05;2.38;;;;;;;-1.89;100.00;101526.09;6082478;19;20014;-75
2024/01/19 02:09:49;;;;;;;1.77;1.38;;;;;;;-1.87;100.00;101524.41;6083179;19;20360;-73
2024/01/19 02:11:54;;;;;;;1.77;1.60;;;;;;;-1.94;100.00;101530.25;6084834;19;20771;-73
2024/01/19 02:13:59;;;;;;;4.30;2.22;;;;;;;-1.85;100.00;101535.59;6080650;19;20473;-74
2024/01/19 02:16:04;;;;;;;3.83;2.75;;;;;;;-1.84;100.00;101537.34;6085060;19;20021;-74
2024/01/19 02:18:10;;;;;;;5.22;2.30;;;;;;;-1.83;100.00;101533.94;6086898;19;20007;-71
2024/01/19 02:20:15;;;;;;;10.68;3.60;;;;;;;-1.78;100.00;101524.59;6082684;19;20508;-72
2024/01/19 02:22:20;;;;;;;5.85;3.45;;;;;;;-1.70;100.00;101529.03;6082133;19;20015;-71
2024/01/19 02:24:28;;;;;;;5.38;2.70;;;;;;;-1.73;100.00;101534.13;6086309;19;20511;-72
2024/01/19 02:26:35;;;;;;;5.50;3.25;;;;;;;-1.59;100.00;101543.00;6081213;19;20007;-73
2024/01/19 02:28:40;;;;;;;5.15;2.35;;;;;;;-1.53;100.00;101537.09;6082116;19;20014;-72
2024/01/19 02:30:47;;;;;;;4.70;2.28;;;;;;;-1.65;100.00;101541.19;6083611;19;20033;-72
2024/01/19 02:32:49;;;;;;;13.45;3.75;;;;;;;-1.65;100.00;101546.34;6085532;19;20087;-72
2024/01/19 02:34:54;;;;;;;11.00;4.13;;;;;;;-1.73;100.00;101541.88;6079110;19;20013;-72
2024/01/19 02:36:59;;;;;;;7.43;3.10;;;;;;;-1.74;100.00;101546.13;6080128;19;20018;-73
2024/01/19 02:39:02;;;;;;;6.97;3.05;;;;;;;-1.66;100.00;101549.75;6084832;19;20010;-74
2024/01/19 02:41:10;;;;;;;7.13;2.60;;;;;;;-1.61;100.00;101549.84;6086334;19;20007;-74
2024/01/19 02:43:15;;;;;;;9.45;2.78;;;;;;;-1.74;100.00;101556.44;6081846;19;20024;-73
2024/01/19 02:45:20;;;;;;;7.57;3.80;;;;;;;-1.57;100.00;101547.34;6082770;19;20026;-74
2024/01/19 02:47:25;;;;;;;4.38;2.75;;;;;;;-1.49;100.00;101552.69;6086438;19;20014;-74
2024/01/19 02:49:30;;;;;;;6.15;3.67;;;;;;;-1.59;100.00;101551.59;6083246;19;20081;-74
2024/01/19 02:51:35;;;;;;;8.85;3.40;;;;;;;-1.58;100.00;101558.53;6078386;19;20387;-74
2024/01/19 02:53:40;;;;;;;5.13;2.83;;;;;;;-1.59;100.00;101559.34;6075782;19;20007;-74
2024/01/19 02:55:42;;;;;;;4.22;2.88;;;;;;;-1.63;100.00;101567.84;6083758;19;20024;-74
2024/01/19 02:57:50;;;;;;;3.72;2.67;;;;;;;-1.68;100.00;101566.91;6079682;19;20024;-74
2024/01/19 02:59:55;;;;;;;7.00;2.28;;;;;;;-1.71;100.00;101565.94;6082618;19;20021;-74
2024/01/19 03:02:00;;;;;;;21.75;3.45;;;;;;;-1.65;100.00;101574.69;6079107;19;20284;-74
2024/01/19 03:04:06;;;;;;;7.45;3.60;;;;;;;-1.46;100.00;101567.34;6081317;19;20019;-74
2024/01/19 03:06:11;;;;;;;6.20;2.92;;;;;;;-1.49;100.00;101572.44;6080898;19;20003;-74
2024/01/19 03:08:13;;;;;;;6.85;2.70;;;;;;;-1.43;100.00;101576.00;6084854;19;20031;-74
2024/01/19 03:10:18;;;;;;;4.43;3.03;;;;;;;-1.20;100.00;101573.00;6082676;19;20530;-74
2024/01/19 03:12:23;;;;;;;8.63;2.90;;;;;;;-1.20;100.00;101576.44;6077565;19;20023;-74
2024/01/19 03:14:31;;;;;;;3.67;3.05;;;;;;;-1.12;100.00;101572.31;6081010;19;20335;-74
2024/01/19 03:16:36;;;;;;;6.45;3.55;;;;;;;-1.11;100.00;101562.84;6084082;19;20356;-74
2024/01/19 03:18:40;;;;;;;5.10;3.78;;;;;;;-1.15;100.00;101580.00;6078998;19;20042;-74
2024/01/19 03:20:46;;;;;;;5.45;3.90;;;;;;;-0.98;100.00;101579.44;6081006;19;20011;-74
2024/01/19 03:22:48;;;;;;;6.68;4.20;;;;;;;-1.06;100.00;101581.00;6084552;19;20648;-74
2024/01/19 03:24:53;;;;;;;6.80;4.15;;;;;;;-1.14;100.00;101575.69;6090543;19;20256;-74
2024/01/19 03:26:58;;;;;;;5.47;3.25;;;;;;;-1.20;100.00;101579.03;6087536;19;20319;-73
2024/01/19 03:29:03;;;;;;;8.25;3.33;;;;;;;-1.23;100.00;101576.41;6088031;19;20007;-74
2024/01/19 03:31:11;;;;;;;7.47;3.63;;;;;;;-1.37;100.00;101580.41;6089701;19;20010;-74
2024/01/19 03:33:15;;;;;;;6.68;3.35;;;;;;;-1.40;100.00;101581.19;6090082;19;20007;-74
2024/01/19 03:35:21;;;;;;;5.40;3.35;;;;;;;-1.42;100.00;101577.75;6084111;19;20515;-74
2024/01/19 03:37:23;;;;;;;5.68;3.08;;;;;;;-1.49;100.00;101583.59;6090532;19;20726;-73
2024/01/19 03:39:31;;;;;;;6.47;3.70;;;;;;;-1.46;100.00;101585.38;6090105;19;20143;-74
2024/01/19 03:41:36;;;;;;;18.58;4.63;;;;;;;-1.59;100.00;101585.09;6086989;19;20126;-74
2024/01/19 03:43:41;;;;;;;3.63;2.65;;;;;;;-1.64;100.00;101585.84;6084103;19;20007;-73
2024/01/19 03:45:46;;;;;;;5.22;2.92;;;;;;;-1.69;100.00;101585.75;6087390;19;20377;-74
2024/01/19 03:47:54;;;;;;;6.65;3.97;;;;;;;-1.65;100.00;101594.44;6089247;19;20018;-73
2024/01/19 03:50:01;;;;;;;7.28;4.20;;;;;;;-1.72;100.00;101585.69;6085151;19;20006;-73
2024/01/19 03:52:10;;;;;;;10.32;3.78;;;;;;;-1.75;100.00;101595.94;6086521;19;20034;-74
2024/01/19 03:54:13;;;;;;;7.90;3.55;;;;;;;-1.73;100.00;101593.41;6085543;19;20010;-73
2024/01/19 03:56:18;;;;;;;5.97;4.18;;;;;;;-1.81;100.00;101595.81;6085269;19;20044;-73
2024/01/19 03:58:24;;;;;;;12.15;3.55;;;;;;;-1.81;100.00;101594.09;6088072;19;20506;-73
2024/01/19 04:00:29;;;;;;;8.55;4.43;;;;;;;-1.80;100.00;101597.53;6092107;19;20042;-73
2024/01/19 04:02:34;;;;;;;6.30;3.40;;;;;;;-1.79;100.00;101595.00;6085914;19;20010;-75
2024/01/19 04:04:42;;;;;;;5.07;3.13;;;;;;;-1.64;100.00;101601.31;6082389;19;20006;-74
2024/01/19 04:06:47;;;;;;;5.00;3.30;;;;;;;-1.33;100.00;101597.69;6089535;19;20003;-73
2024/01/19 04:08:53;;;;;;;11.10;4.10;;;;;;;-1.50;100.00;101604.19;6082091;19;20009;-76
2024/01/19 04:10:58;;;;;;;9.52;3.17;;;;;;;-1.43;100.00;101608.63;6085305;19;20619;-75
2024/01/19 04:13:03;;;;;;;7.78;3.38;;;;;;;-1.37;100.00;101598.44;6086662;19;20459;-73
2024/01/19 04:15:10;;;;;;;6.07;2.58;;;;;;;-1.44;100.00;101605.19;6088562;19;20078;-72
2024/01/19 04:17:15;;;;;;;3.33;2.20;;;;;;;-1.43;100.00;101599.19;6089619;19;20021;-75
2024/01/19 04:19:21;;;;;;;7.93;3.83;;;;;;;-1.42;100.00;101600.94;6079505;19;20002;-74
2024/01/19 04:21:30;;;;;;;4.38;3.55;;;;;;;-1.38;100.00;101600.16;6086923;19;20487;-75
2024/01/19 04:23:35;;;;;;;9.05;2.92;;;;;;;-1.22;100.00;101609.06;6088856;19;20014;-74
2024/01/19 04:25:40;;;;;;;9.15;3.25;;;;;;;-1.19;100.00;101621.16;6087370;19;20052;-73
2024/01/19 04:27:45;;;;;;;6.05;2.80;;;;;;;-1.18;100.00;101640.97;6081135;19;20432;-74
2024/01/19 04:29:48;;;;;;;6.90;3.63;;;;;;;-0.51;100.00;101644.81;6087686;19;20053;-73
2024/01/19 04:31:53;;;;;;;5.25;2.17;;;;;;;0.14;100.00;101661.41;6087062;19;20011;-74
2024/01/19 04:33:58;;;;;;;1.67;1.52;;;;;;;0.47;100.00;101665.31;6085693;19;20010;-74
2024/01/19 04:36:03;;;;;;;2.92;2.45;;;;;;;0.53;100.00;101671.47;6085217;19;20082;-74
2024/01/19 04:38:11;;;;;;;2.00;1.42;;;;;;;0.49;100.00;101684.31;6088745;19;20028;-74
2024/01/19 04:40:16;;;;;;;9.20;1.92;;;;;;;0.44;100.00;101687.69;6088606;19;20042;-73
2024/01/19 04:42:21;;;;;;;2.80;1.20;;;;;;;0.30;100.00;101691.81;6086621;19;20011;-74
2024/01/19 04:44:26;;;;;;;2.58;1.60;;;;;;;0.14;100.00;101677.78;6084667;19;20023;-73
2024/01/19 04:46:31;;;;;;;8.02;1.60;;;;;;;0.01;100.00;101685.31;6087779;19;20007;-71
2024/01/19 04:48:33;;;;;;;1.52;1.42;;;;;;;-0.11;100.00;101685.97;6085468;19;20106;-71
2024/01/19 04:50:39;;;;;;;2.92;1.55;;;;;;;-0.16;100.00;101692.75;6085383;19;20019;-71
2024/01/19 04:52:44;;;;;;;1.60;1.50;;;;;;;-0.22;100.00;101698.69;6082481;19;20268;-71
2024/01/19 04:54:52;;;;;;;2.60;1.00;;;;;;;-0.27;100.00;101700.31;6087206;19;20015;-71
2024/01/19 04:56:57;;;;;;;7.15;2.00;;;;;;;-0.33;100.00;101710.56;6083746;19;20033;-71
2024/01/19 04:59:02;;;;;;;1.58;1.48;;;;;;;-0.31;100.00;101708.88;6087579;19;20438;-71
2024/01/19 05:01:05;;;;;;;2.60;1.90;;;;;;;-0.34;100.00;101707.13;6086905;19;20010;-72
2024/01/19 05:03:10;;;;;;;1.48;1.38;;;;;;;-0.39;100.00;101702.72;6084367;19;20010;-71
2024/01/19 05:05:15;;;;;;;1.35;1.20;;;;;;;-0.41;100.00;101702.66;6083871;19;20440;-70
2024/01/19 05:07:17;;;;;;;1.60;1.50;;;;;;;-0.49;100.00;101699.94;6087449;19;20551;-71
2024/01/19 05:09:22;;;;;;;12.88;2.15;;;;;;;-0.47;100.00;101703.44;6086878;19;20011;-72
2024/01/19 05:11:30;;;;;;;3.42;1.65;;;;;;;-0.53;100.00;101711.03;6082244;19;20471;-71
2024/01/19 05:13:35;;;;;;;4.80;2.10;;;;;;;-0.57;100.00;101717.00;6085355;19;20356;-71
2024/01/19 05:15:40;;;;;;;4.38;2.03;;;;;;;-0.49;100.00;101715.44;6088125;19;20042;-72
2024/01/19 05:17:45;;;;;;;3.10;1.67;;;;;;;-0.56;100.00;101728.19;6085160;19;20027;-71
2024/01/19 05:19:50;;;;;;;3.60;2.38;;;;;;;-0.53;100.00;101723.09;6084829;19;20030;-72
2024/01/19 05:21:55;;;;;;;5.97;1.67;;;;;;;-0.59;100.00;101730.72;6086915;19;20082;-71
2024/01/19 05:24:00;;;;;;;2.30;2.10;;;;;;;-0.59;100.00;101735.88;6084549;19;20015;-71
2024/01/19 05:26:08;;;;;;;4.78;2.33;;;;;;;-0.64;100.00;101740.94;6081424;19;20018;-71
2024/01/19 05:28:16;;;;;;;2.33;1.40;;;;;;;-0.64;100.00;101746.09;6085265;19;20035;-72
2024/01/19 05:30:21;;;;;;;8.82;2.03;;;;;;;-0.69;100.00;101747.72;6085803;19;20082;-71
2024/01/19 05:32:26;;;;;;;2.42;2.00;;;;;;;-0.73;100.00;101751.09;6083063;19;20015;-72
2024/01/19 05:34:32;;;;;;;2.75;1.63;;;;;;;-0.83;100.00;101755.19;6082635;19;20038;-72
2024/01/19 05:36:37;;;;;;;3.58;2.38;;;;;;;-0.86;100.00;101754.28;6086363;19;20021;-72
2024/01/19 05:38:43;;;;;;;6.65;2.50;;;;;;;-0.90;100.00;101756.75;6085980;19;20113;-72
2024/01/19 05:40:48;;;;;;;5.78;2.63;;;;;;;-0.95;100.00;101758.41;6083624;19;20031;-72
2024/01/19 05:42:53;;;;;;;3.55;2.28;;;;;;;-0.99;100.00;101758.28;6086270;19;20014;-72
2024/01/19 05:45:01;;;;;;;9.63;3.10;;;;;;;-1.09;100.00;101759.78;6083840;19;20046;-72
2024/01/19 05:47:04;;;;;;;2.63;1.90;;;;;;;-1.12;100.00;101767.47;6082846;19;20078;-72
2024/01/19 05:49:08;;;;;;;;;;;;;;;-1.22;100.00;101770.66;6083778;19;20014;-72
2024/01/19 05:51:15;;;;;;;2.28;1.98;;;;;;;-1.30;100.00;101769.63;6088799;19;19923;-74
2024/01/19 05:53:17;;;;;;;4.45;2.25;;;;;;;-1.35;100.00;101780.69;6082177;19;20105;-72
2024/01/19 05:55:23;;;;;;;4.22;2.08;;;;;;;-1.33;100.00;101780.75;6074821;19;20009;-73
2024/01/19 05:57:25;;;;;;;10.43;3.20;;;;;;;-1.40;100.00;101781.41;6085110;19;20002;-72
2024/01/19 05:59:30;;;;;;;2.72;2.40;;;;;;;-1.42;100.00;101796.88;6086072;19;20017;-71
2024/01/19 06:01:38;;;;;;;4.45;2.92;;;;;;;-1.49;100.00;101801.84;6080412;19;20719;-73
2024/01/19 06:03:44;;;;;;;6.35;3.22;;;;;;;-1.50;100.00;101805.22;6082441;19;20032;-73
2024/01/19 06:05:49;;;;;;;5.72;3.10;;;;;;;-1.53;100.00;101806.03;6088081;19;20054;-74
2024/01/19 06:07:54;;;;;;;4.82;2.45;;;;;;;-1.53;100.00;101807.75;6085900;19;20357;-74
2024/01/19 06:09:59;;;;;;;5.10;3.03;;;;;;;-1.51;100.00;101811.22;6082732;19;20641;-74
2024/01/19 06:12:05;;;;;;;4.43;2.67;;;;;;;-1.55;100.00;101824.06;6083638;19;20010;-72
2024/01/19 06:14:10;;;;;;;5.80;3.40;;;;;;;-1.57;100.00;101812.81;6085828;19;20072;-72
2024/01/19 06:16:15;;;;;;;8.65;2.92;;;;;;;-1.50;100.00;101816.44;6083484;19;20565;-72
2024/01/19 06:18:23;;;;;;;4.55;2.90;;;;;;;-1.53;100.00;101815.47;6082038;19;20010;-72
2024/01/19 06:20:29;;;;;;;8.63;3.88;;;;;;;-1.48;100.00;101819.91;6086246;19;20479;-72
2024/01/19 06:22:34;;;;;;;6.97;3.05;;;;;;;-1.56;100.00;101831.72;6084253;19;20577;-74
2024/01/19 06:24:39;;;;;;;9.43;3.72;;;;;;;-1.61;100.00;101835.91;6081577;19;20069;-74
2024/01/19 06:26:46;;;;;;;5.35;3.60;;;;;;;-1.65;100.00;101841.81;6082530;19;20058;-74
2024/01/19 06:28:51;;;;;;;6.90;3.65;;;;;;;-1.70;100.00;101839.13;6082818;19;20007;-74
2024/01/19 06:30:56;;;;;;;7.93;4.35;;;;;;;-1.69;100.00;101848.59;6081751;19;20015;-73
2024/01/19 06:33:01;;;;;;;6.13;3.88;;;;;;;-1.66;100.00;101843.53;6079263;19;20010;-74
2024/01/19 06:35:10;;;;;;;9.98;4.53;;;;;;;-1.69;100.00;101850.28;6083466;19;20312;-72
2024/01/19 06:37:16;;;;;;;7.53;4.03;;;;;;;-1.70;100.00;101853.72;6080165;19;20003;-74
2024/01/19 06:39:20;;;;;;;8.15;3.67;;;;;;;-1.66;100.00;101848.69;6083520;19;20038;-73
2024/01/19 06:41:30;;;;;;;6.82;4.43;;;;;;;-1.71;100.00;101857.09;6080245;19;20019;-74
2024/01/19 06:43:36;;;;;;;6.60;3.80;;;;;;;-1.75;100.00;101858.75;6083267;19;20014;-73
2024/01/19 06:45:38;;;;;;;6.85;4.47;;;;;;;-1.80;100.00;101862.91;6084452;19;20042;-72
2024/01/19 06:47:44;;;;;;;8.43;4.18;;;;;;;-1.81;100.00;101864.59;6082013;19;20394;-71
2024/01/19 06:49:49;;;;;;;5.97;3.97;;;;;;;-1.86;100.00;101873.91;6085093;19;20051;-73
2024/01/19 06:51:54;;;;;;;7.32;4.43;;;;;;;-1.90;100.00;101871.22;6083846;19;20833;-73
2024/01/19 06:54:02;;;;;;;6.15;4.28;;;;;;;-2.00;100.00;101868.41;6077296;19;20011;-73
2024/01/19 06:56:07;;;;;;;8.45;3.85;;;;;;;-2.08;100.00;101874.13;6077858;19;20078;-73
2024/01/19 06:58:14;;;;;;;14.27;4.25;;;;;;;-2.17;100.00;101877.34;6089073;19;20018;-73
2024/01/19 07:00:20;;;;;;;5.93;3.97;;;;;;;-2.14;100.00;101881.72;6090697;19;20094;-73
2024/01/19 07:02:26;;;;;;;10.32;4.85;;;;;;;-2.21;100.00;101876.41;6086322;19;20254;-72
2024/01/19 07:04:31;;;;;;;7.22;4.32;;;;;;;-2.21;100.00;101893.56;6088716;19;20522;-72
2024/01/19 07:06:36;;;;;;;26.45;6.55;;;;;;;-2.31;100.00;101897.56;6090940;19;20406;-74
2024/01/19 07:08:44;;;;;;;11.48;5.22;;;;;;;-2.30;100.00;101899.28;6087197;19;20007;-73
2024/01/19 07:10:49;;;;;;;7.60;4.78;;;;;;;-2.34;100.00;101899.13;6088236;19;20010;-71
2024/01/19 07:12:54;;;;;;;8.70;5.47;;;;;;;-2.21;100.00;101906.44;6086689;19;20389;-73
2024/01/19 07:14:57;;;;;;;7.65;5.05;;;;;;;-2.28;100.00;101902.78;6091570;19;20017;-72
2024/01/19 07:17:02;;;;;;;;;;;;;;;-2.27;100.00;101899.38;6086383;19;20028;-74
2024/01/19 07:19:06;;;;;;;4.50;3.20;;;;;;;-2.32;100.00;101897.50;6091171;19;19918;-73
2024/01/19 07:21:11;;;;;;;12.73;4.28;;;;;;;-2.33;100.00;101908.63;6089954;19;20364;-73
2024/01/19 07:23:16;;;;;;;8.18;4.45;;;;;;;-2.32;100.00;101913.81;6087623;19;20006;-74
2024/01/19 07:25:24;;;;;;;10.73;4.35;;;;;;;-2.36;100.00;101912.00;6088040;19;20027;-74
2024/01/19 07:27:29;;;;;;;8.32;4.82;;;;;;;-2.33;100.00;101918.94;6087875;19;20111;-73
2024/01/19 07:29:34;;;;;;;8.07;4.63;;;;;;;-2.37;100.00;101914.50;6082680;19;20015;-72
2024/01/19 07:31:40;;;;;;;7.82;5.85;;;;;;;-2.44;100.00;101916.91;6085849;19;20003;-73
2024/01/19 07:33:45;;;;;;;7.68;3.90;;;;;;;-2.40;100.00;101925.56;6089568;19;20011;-73
2024/01/19 07:35:50;;;;;;;12.00;5.82;;;;;;;-2.33;100.00;101934.38;6090599;19;20004;-71
2024/01/19 07:37:55;;;;;;;7.35;4.38;;;;;;;-2.33;100.00;101932.66;6087004;19;20007;-71
2024/01/19 07:40:00;;;;;;;13.23;4.85;;;;;;;-2.24;100.00;101943.25;6087307;19;20021;-72
2024/01/19 07:42:08;;;;;;;4.78;3.58;;;;;;;-2.23;100.00;101937.25;6090318;19;20123;-72
2024/01/19 07:44:14;;;;;;;9.38;5.30;;;;;;;-2.14;100.00;101938.34;6087934;19;20026;-74
2024/01/19 07:46:19;;;;;;;4.72;3.33;;;;;;;-2.07;100.00;101940.28;6085033;19;20015;-72
2024/01/19 07:48:26;;;;;;;4.78;3.55;;;;;;;-2.03;100.00;101937.84;6083643;19;20361;-74
2024/01/19 07:50:32;;;;;;;4.95;3.13;;;;;;;-1.87;100.00;101940.84;6087838;19;20476;-72
2024/01/19 07:52:37;;;;;;;3.33;2.28;;;;;;;-1.75;100.00;101954.06;6085030;19;20051;-71
2024/01/19 07:54:39;;;;;;;5.55;2.85;;;;;;;-1.71;100.00;101952.44;6085815;19;20017;-72
2024/01/19 07:56:44;;;;;;;11.07;2.60;;;;;;;-1.64;100.00;101947.50;6089382;19;20015;-72
2024/01/19 07:58:52;;;;;;;6.43;2.97;;;;;;;-1.48;100.00;101959.09;6087555;19;20353;-72
2024/01/19 08:00:57;;;;;;;6.13;3.33;;;;;;;-1.35;100.00;101960.31;6084368;19;20014;-73
2024/01/19 08:03:02;;;;;;;4.88;3.10;;;;;;;-1.21;100.00;101958.06;6087530;19;20278;-75
2024/01/19 08:05:09;;;;;;;7.40;3.75;;;;;;;-1.14;100.00;101960.00;6084540;19;20082;-75
2024/01/19 08:07:14;;;;;;;5.18;3.15;;;;;;;-1.06;100.00;101966.22;6086040;19;20585;-74
2024/01/19 08:09:19;;;;;;;7.65;4.25;;;;;;;-0.95;100.00;101969.97;6085232;19;20011;-75
2024/01/19 08:11:26;;;;;;;7.25;4.93;;;;;;;-0.86;100.00;101971.88;6088108;19;20015;-72
2024/01/19 08:13:31;;;;;;;10.48;4.38;;;;;;;-0.75;100.00;101980.75;6089851;19;20035;-73
2024/01/19 08:15:38;;;;;;;5.72;4.00;;;;;;;-0.68;100.00;101976.63;6079829;19;20094;-72
2024/01/19 08:17:44;;;;;;;5.50;3.95;;;;;;;-0.70;100.00;101986.03;6087562;19;20474;-72
2024/01/19 08:19:49;;;;;;;6.05;3.10;;;;;;;-0.63;100.00;101985.34;6086556;19;20344;-71
2024/01/19 08:21:54;;;;;;;8.20;3.85;;;;;;;-0.54;100.00;101979.53;6086041;19;20610;-71
2024/01/19 08:24:00;;;;;;;9.35;4.07;;;;;;;-0.54;100.00;101985.56;6084626;19;20062;-71
2024/01/19 08:26:06;;;;;;;5.80;4.38;;;;;;;-0.58;100.00;101996.66;6088430;19;20127;-72
2024/01/19 08:28:11;;;;;;;10.35;3.92;;;;;;;-0.63;100.00;101995.69;6087946;19;20023;-71
2024/01/19 08:30:19;;;;;;;11.23;4.95;;;;;;;-0.58;100.00;101998.34;6084303;19;20010;-72
2024/01/19 08:32:27;;;;;;;5.75;4.03;;;;;;;-0.45;100.00;101997.78;6088640;19;20523;-71
2024/01/19 08:34:30;;;;;;;6.03;4.13;;;;;;;-0.33;100.00;101997.22;6087900;19;20010;-73
2024/01/19 08:36:35;;;;;;;9.95;5.65;;;;;;;-0.26;100.00;102001.69;6086863;19;20028;-73
2024/01/19 08:38:41;;;;;;;7.60;4.45;;;;;;;-0.22;100.00;102000.91;6086593;19;20023;-71
2024/01/19 08:40:45;;;;;;;12.45;6.13;;;;;;;-0.24;100.00;102000.91;6087349;19;20017;-71
2024/01/19 08:42:50;;;;;;;8.32;5.47;;;;;;;-0.29;100.00;102002.50;6084066;19;20267;-73
2024/01/19 08:44:55;;;;;;;20.52;5.68;;;;;;;-0.27;100.00;102007.69;6084152;19;20010;-76
2024/01/19 08:47:01;;;;;;;10.13;5.15;;;;;;;-0.26;100.00;102001.69;6081536;19;20014;-72
2024/01/19 08:49:08;;;;;;;10.95;4.95;;;;;;;-0.27;100.00;101999.94;6086898;19;20587;-74
2024/01/19 08:51:22;;;;;;;10.00;4.57;;;;;;;-0.28;100.00;102008.53;6088294;19;20003;-75
2024/01/19 08:53:27;;;;;;;7.05;4.05;;;;;;;-0.26;100.00;102004.28;6083232;19;20003;-74
2024/01/19 08:55:32;;;;;;;8.40;5.53;;;;;;;-0.25;100.00;102006.00;6087758;19;20010;-72
2024/01/19 08:57:37;;;;;;;12.07;6.28;;;;;;;-0.14;100.00;102008.84;6081462;19;20011;-71
2024/01/19 08:59:42;;;;;;;23.73;6.05;;;;;;;-0.07;100.00;102015.91;6082446;19;20471;-70
2024/01/19 09:01:48;;;;;;;8.48;5.40;;;;;;;-0.01;100.00;102022.06;6085172;19;20042;-70
2024/01/19 09:03:53;;;;;;;16.27;7.82;;;;;;;0.02;100.00;102025.56;6088104;19;20778;-74
2024/01/19 09:06:01;;;;;;;10.20;6.03;;;;;;;-0.05;100.00;102035.75;6086412;19;20827;-70
2024/01/19 09:08:07;;;;;;;10.43;6.25;;;;;;;-0.04;100.00;102034.03;6083312;19;20014;-72
2024/01/19 09:10:12;;;;;;;11.88;5.93;;;;;;;0.03;100.00;102032.44;6081418;19;20353;-70
2024/01/19 09:12:17;;;;;;;15.48;7.07;;;;;;;0.02;100.00;102034.16;6086053;19;20015;-70
2024/01/19 09:14:22;;;;;;;14.43;6.93;;;;;;;0.02;100.00;102033.31;6082061;19;20459;-74
2024/01/19 09:16:27;;;;;;;13.40;7.65;;;;;;;0.02;100.00;102035.88;6088405;19;20046;-72
2024/01/19 09:18:29;;;;;;;15.80;7.63;;;;;;;-0.01;100.00;102029.81;6084819;19;20464;-72
2024/01/19 09:20:37;;;;;;;14.82;7.80;;;;;;;-0.04;100.00;102040.06;6084597;19;20007;-73
2024/01/19 09:22:45;;;;;;;15.15;7.25;;;;;;;-0.01;100.00;102039.28;6083912;19;20018;-73
2024/01/19 09:24:50;;;;;;;18.13;9.50;;;;;;;0.00;100.00;102038.47;6086485;19;20408;-71
2024/01/19 09:26:55;;;;;;;22.13;8.65;;;;;;;0.08;100.00;102038.59;6084746;19;20014;-70
2024/01/19 09:29:00;;;;;;;15.85;7.95;;;;;;;0.17;100.00;102038.81;6081435;19;20003;-70
2024/01/19 09:31:03;;;;;;;21.65;9.82;;;;;;;0.19;100.00;102043.19;6086190;19;20074;-72
2024/01/19 09:33:11;;;;;;;12.38;6.57;;;;;;;0.24;100.00;102051.03;6085688;19;20055;-75
2024/01/19 09:35:16;;;;;;;35.50;10.13;;;;;;;0.29;100.00;102048.53;6084723;19;20078;-73